Terminal Aerodrome Forecast
Issued by NWS Sioux Falls, SD

Home | Current Version | Previous Version | Text Only | Print | Product List | Glossary On
Versions: 1 2 3 4 5 6 7 8 9 10 11 12 13 14 15
763
FTUS43 KFSD 260334 AAC
TAFHON
TAF AMD
KHON 260334Z 2604/2624 12011KT P6SM SHRA SCT028 OVC120
      TEMPO 2604/2606 6SM SHRA BKN028
     FM260600 08005KT P6SM -SHRA OVC090
     FM261000 02005KT P6SM OVC070
     FM261500 02010KT P6SM BKN070=

USA.gov is the U.S. government's official web portal to all federal, state and local government web resources and services.